Time;durP1;ratioP1;P1;durP2;ratioP2;P2;SDS_P1;SDS_P2;PMS_P1;PMS_P2;Temp;Humidity;BMP_temperature;BMP_pressure;BME280_temperature;BME280_humidity;BME280_pressure;Samples;Min_cycle;Max_cycle;Signal;HPM_P1;HPM_P2
2021/10/10 00:00:44;;;;;;;21.73;11.10;;;;;;;10.24;73.58;102589.56;6121814;23;20156;-58
2021/10/10 00:03:09;;;;;;;20.83;10.97;;;;;;;10.29;73.53;102603.88;6122133;23;20512;-58
2021/10/10 00:05:34;;;;;;;21.00;10.83;;;;;;;10.32;73.35;102600.34;6121377;23;20153;-58
2021/10/10 00:08:00;;;;;;;17.83;10.87;;;;;;;10.38;73.74;102596.03;6122118;23;20152;-58
2021/10/10 00:10:25;;;;;;;22.53;11.33;;;;;;;10.32;72.79;102592.03;6120890;23;20236;-59
2021/10/10 00:12:51;;;;;;;24.83;11.67;;;;;;;10.42;73.42;102601.59;6121785;23;20161;-58
2021/10/10 00:15:17;;;;;;;19.03;10.90;;;;;;;10.42;73.54;102590.50;6121279;23;20264;-58
2021/10/10 00:17:42;;;;;;;19.63;11.20;;;;;;;10.21;72.76;102555.13;6122030;23;20647;-58
2021/10/10 00:20:09;;;;;;;18.80;11.13;;;;;;;10.17;72.86;102562.59;6122031;23;20158;-58
2021/10/10 00:22:35;;;;;;;19.60;11.00;;;;;;;10.40;72.77;102599.19;6120000;23;20165;-58
2021/10/10 00:25:00;;;;;;;22.67;11.33;;;;;;;10.43;73.09;102597.63;6120836;23;20616;-58
2021/10/10 00:27:26;;;;;;;20.93;10.93;;;;;;;10.45;72.75;102601.63;6122068;23;20531;-58
2021/10/10 00:29:51;;;;;;;18.50;11.13;;;;;;;10.34;73.17;102558.34;6120224;23;20206;-59
2021/10/10 00:32:17;;;;;;;22.07;11.57;;;;;;;10.30;72.49;102552.00;6121631;23;20161;-59
2021/10/10 00:34:43;;;;;;;18.63;10.27;;;;;;;10.49;71.90;102593.31;6121228;23;20591;-58
2021/10/10 00:37:09;;;;;;;19.63;10.77;;;;;;;10.47;71.95;102596.50;6121692;23;20149;-58
2021/10/10 00:39:34;;;;;;;21.80;11.97;;;;;;;10.49;72.93;102590.56;6121979;23;20635;-58
2021/10/10 00:42:00;;;;;;;19.30;10.63;;;;;;;10.56;72.31;102585.84;6121327;23;20170;-58
2021/10/10 00:44:26;;;;;;;20.57;10.80;;;;;;;10.61;72.61;102585.50;6122047;23;20153;-58
2021/10/10 00:46:52;;;;;;;17.30;9.97;;;;;;;10.19;72.23;102523.44;6121172;23;20187;-59
2021/10/10 00:49:18;;;;;;;20.80;10.40;;;;;;;10.54;72.21;102588.22;6121886;23;20254;-58
2021/10/10 00:51:46;;;;;;;20.70;10.37;;;;;;;10.60;71.71;102588.69;6121797;23;20155;-58
2021/10/10 00:54:15;;;;;;;19.40;10.70;;;;;;;10.56;72.08;102590.63;6121788;23;20153;-58
2021/10/10 00:56:42;;;;;;;23.37;10.03;;;;;;;10.42;71.26;102583.00;6122646;23;20155;-59
2021/10/10 00:59:12;;;;;;;17.30;10.07;;;;;;;10.37;71.43;102577.81;6123443;23;20152;-57
2021/10/10 01:01:37;;;;;;;23.23;11.00;;;;;;;10.15;72.71;102561.38;6123298;23;20663;-58
2021/10/10 01:04:03;;;;;;;19.70;10.13;;;;;;;9.50;71.99;102463.44;6123707;23;20158;-58
2021/10/10 01:06:29;;;;;;;19.47;10.27;;;;;;;10.17;72.62;102579.22;6122860;23;20181;-58
2021/10/10 01:08:55;;;;;;;18.87;10.43;;;;;;;9.64;72.21;102499.56;6123641;23;20633;-59
2021/10/10 01:11:21;;;;;;;19.53;10.30;;;;;;;10.15;72.89;102575.25;6123181;23;20192;-59
2021/10/10 01:13:47;;;;;;;19.17;10.50;;;;;;;10.14;72.48;102576.44;6122192;23;20663;-58
2021/10/10 01:16:14;;;;;;;19.43;10.90;;;;;;;10.17;72.76;102568.13;6122538;23;20154;-59
2021/10/10 01:18:40;;;;;;;21.53;10.80;;;;;;;10.23;72.09;102576.88;6123819;23;20178;-58
2021/10/10 01:21:05;;;;;;;19.07;10.80;;;;;;;10.00;71.52;102554.09;6122864;23;20181;-59
2021/10/10 01:23:31;;;;;;;18.17;10.47;;;;;;;10.12;72.65;102570.44;6123335;23;20506;-58
2021/10/10 01:25:56;;;;;;;27.80;11.70;;;;;;;9.88;73.02;102537.75;6123046;23;20193;-59
2021/10/10 01:28:22;;;;;;;21.57;11.47;;;;;;;10.19;72.33;102571.31;6123589;23;20157;-59
2021/10/10 01:30:47;;;;;;;20.00;11.20;;;;;;;9.87;72.04;102519.53;6123444;23;20205;-59
2021/10/10 01:33:15;;;;;;;19.10;11.13;;;;;;;10.25;72.05;102572.53;6123077;23;20160;-58
2021/10/10 01:35:41;;;;;;;18.67;11.47;;;;;;;10.26;71.20;102571.34;6122920;23;20206;-59
2021/10/10 01:38:08;;;;;;;17.63;10.50;;;;;;;10.26;71.09;102563.03;6122603;23;20157;-58
2021/10/10 01:40:34;;;;;;;17.57;10.13;;;;;;;10.25;70.64;102569.78;6121421;23;20159;-58
2021/10/10 01:43:04;;;;;;;22.07;10.87;;;;;;;10.37;70.13;102560.38;6123137;23;20216;-58
2021/10/10 01:45:30;;;;;;;23.23;10.63;;;;;;;10.27;69.78;102581.28;6122751;23;20151;-59
2021/10/10 01:47:55;;;;;;;24.80;10.90;;;;;;;10.28;69.75;102573.75;6122972;23;20150;-58
2021/10/10 01:50:21;;;;;;;19.17;11.00;;;;;;;10.17;69.69;102570.91;6123358;23;20162;-58
2021/10/10 01:52:47;;;;;;;29.03;11.53;;;;;;;10.27;69.70;102555.53;6122789;23;20169;-59
2021/10/10 01:55:13;;;;;;;22.70;11.37;;;;;;;10.30;70.65;102566.66;6122487;23;20308;-58
2021/10/10 01:57:39;;;;;;;19.23;10.47;;;;;;;9.66;70.38;102475.03;6122656;23;20153;-59
2021/10/10 02:00:07;;;;;;;21.03;11.03;;;;;;;10.10;70.14;102545.91;6122750;23;20601;-58
2021/10/10 02:02:32;;;;;;;21.93;11.50;;;;;;;10.17;70.81;102557.06;6122891;23;20162;-59
2021/10/10 02:04:58;;;;;;;20.13;9.87;;;;;;;10.15;69.90;102572.47;6122534;23;20156;-59
2021/10/10 02:07:24;;;;;;;23.90;11.40;;;;;;;10.02;70.45;102549.78;6122639;23;20227;-58
2021/10/10 02:09:49;;;;;;;25.90;11.63;;;;;;;10.31;70.77;102568.22;6123123;23;20215;-58
2021/10/10 02:12:15;;;;;;;23.13;10.67;;;;;;;10.38;70.44;102568.31;6122652;23;20153;-59
2021/10/10 02:14:40;;;;;;;19.47;10.70;;;;;;;10.42;70.42;102566.38;6122783;23;20160;-59
2021/10/10 02:17:06;;;;;;;30.57;11.23;;;;;;;10.43;70.16;102551.31;6122456;23;20177;-58
2021/10/10 02:19:32;;;;;;;18.73;10.93;;;;;;;10.10;68.41;102511.88;6122552;23;20545;-59
2021/10/10 02:21:58;;;;;;;22.00;11.07;;;;;;;10.32;69.68;102544.09;6122684;23;20166;-58
2021/10/10 02:24:24;;;;;;;22.83;10.93;;;;;;;10.11;69.58;102517.03;6122773;23;20154;-58
2021/10/10 02:26:50;;;;;;;18.00;10.50;;;;;;;10.35;68.44;102557.19;6122476;23;20262;-59
2021/10/10 02:29:16;;;;;;;22.70;10.90;;;;;;;10.08;68.58;102525.28;6122165;23;20160;-60
2021/10/10 02:31:44;;;;;;;22.67;11.10;;;;;;;10.34;68.87;102559.16;6122751;23;20189;-58
2021/10/10 02:34:11;;;;;;;17.93;11.13;;;;;;;10.21;68.99;102546.00;6122784;23;20784;-59
2021/10/10 02:36:37;;;;;;;20.00;10.07;;;;;;;10.42;68.76;102557.25;6122469;23;20512;-59
2021/10/10 02:39:03;;;;;;;20.60;10.50;;;;;;;10.33;68.81;102546.50;6122017;23;20161;-58
2021/10/10 02:41:29;;;;;;;19.27;10.73;;;;;;;10.23;68.41;102549.97;6122356;23;20214;-59
2021/10/10 02:43:54;;;;;;;17.50;10.33;;;;;;;10.12;68.34;102523.34;6122809;23;20180;-59
2021/10/10 02:46:20;;;;;;;24.80;11.33;;;;;;;10.15;68.42;102542.00;6122273;23;20188;-58
2021/10/10 02:48:45;;;;;;;18.00;10.10;;;;;;;10.12;68.22;102515.84;6122563;23;20154;-58
2021/10/10 02:51:11;;;;;;;23.03;11.17;;;;;;;10.35;68.17;102546.88;6122165;23;20190;-59
2021/10/10 02:53:36;;;;;;;19.27;10.20;;;;;;;10.37;68.45;102540.97;6122706;23;20236;-58
2021/10/10 02:56:02;;;;;;;20.83;10.90;;;;;;;10.33;68.52;102546.50;6121753;23;20215;-59
2021/10/10 02:58:29;;;;;;;22.33;10.70;;;;;;;10.23;67.69;102547.19;6122876;23;20153;-59
2021/10/10 03:00:55;;;;;;;20.63;10.40;;;;;;;10.18;67.74;102539.25;6119830;23;20269;-58
2021/10/10 03:03:20;;;;;;;19.53;10.57;;;;;;;10.25;67.94;102550.38;6122617;23;20178;-58
2021/10/10 03:05:46;;;;;;;23.17;10.90;;;;;;;10.22;68.82;102550.34;6122251;23;20180;-59
2021/10/10 03:08:11;;;;;;;16.67;10.27;;;;;;;10.19;68.55;102543.59;6122288;23;20170;-59
2021/10/10 03:10:37;;;;;;;23.43;11.00;;;;;;;10.33;68.93;102562.31;6121867;23;20163;-59
2021/10/10 03:13:03;;;;;;;18.40;10.80;;;;;;;10.36;69.09;102564.31;6122259;23;20154;-59
2021/10/10 03:15:28;;;;;;;17.30;10.00;;;;;;;10.39;69.26;102552.47;6122326;23;20153;-58
2021/10/10 03:17:54;;;;;;;21.77;10.90;;;;;;;10.30;69.48;102552.78;6121779;23;20527;-58
2021/10/10 03:20:19;;;;;;;21.57;9.67;;;;;;;10.13;69.21;102534.06;6121997;23;20178;-59
2021/10/10 03:22:45;;;;;;;15.97;10.47;;;;;;;10.15;70.03;102564.16;6122419;23;20157;-58
2021/10/10 03:25:10;;;;;;;23.97;11.07;;;;;;;10.18;70.60;102564.19;6121525;23;20186;-59
2021/10/10 03:27:36;;;;;;;17.47;9.83;;;;;;;10.12;70.04;102535.25;6122298;23;20191;-59
2021/10/10 03:30:01;;;;;;;18.10;10.00;;;;;;;9.96;69.67;102525.56;6121978;23;20232;-59
2021/10/10 03:32:27;;;;;;;17.37;9.70;;;;;;;10.15;69.84;102550.31;6121959;23;20607;-58
2021/10/10 03:34:52;;;;;;;25.43;10.30;;;;;;;10.22;70.13;102555.91;6122041;23;20448;-59
2021/10/10 03:37:18;;;;;;;20.00;9.47;;;;;;;10.11;69.07;102538.38;6122000;23;20204;-59
2021/10/10 03:39:43;;;;;;;18.70;9.70;;;;;;;10.13;69.79;102556.22;6122132;23;20185;-59
2021/10/10 03:42:09;;;;;;;19.00;10.17;;;;;;;10.07;70.02;102559.72;6121314;23;20152;-59
2021/10/10 03:44:34;;;;;;;19.20;9.97;;;;;;;10.02;69.71;102537.88;6122339;23;20156;-59
2021/10/10 03:47:00;;;;;;;20.83;9.57;;;;;;;10.17;69.70;102548.75;6121921;23;20180;-59
2021/10/10 03:49:26;;;;;;;19.90;9.40;;;;;;;10.08;69.13;102553.81;6122433;23;20181;-59
2021/10/10 03:51:52;;;;;;;19.00;9.60;;;;;;;10.14;69.27;102554.25;6121228;23;20153;-59
2021/10/10 03:56:49;;;;;;;20.13;9.47;;;;;;;9.97;68.00;102555.66;6121580;23;20184;-61
2021/10/10 03:59:15;;;;;;;18.40;9.07;;;;;;;9.95;68.44;102554.44;6121982;23;20628;-61
2021/10/10 04:01:41;;;;;;;19.10;9.33;;;;;;;9.86;69.37;102554.75;6121387;23;20159;-61
2021/10/10 04:04:07;;;;;;;22.07;8.97;;;;;;;9.91;69.43;102557.19;6122045;23;20216;-61
2021/10/10 04:06:33;;;;;;;19.53;8.50;;;;;;;9.93;68.07;102554.00;6121931;23;20153;-61
2021/10/10 04:08:58;;;;;;;21.50;9.37;;;;;;;9.89;68.57;102544.91;6122052;23;20153;-61
2021/10/10 04:11:24;;;;;;;18.73;8.73;;;;;;;9.84;68.42;102554.34;6121969;23;20588;-60
2021/10/10 04:13:49;;;;;;;20.87;9.23;;;;;;;9.74;67.79;102526.56;6122329;23;20165;-58
2021/10/10 04:16:15;;;;;;;16.83;9.30;;;;;;;9.63;68.63;102506.28;6121467;23;20204;-58
2021/10/10 04:18:40;;;;;;;21.03;9.23;;;;;;;9.98;69.56;102556.44;6122217;23;20211;-58
2021/10/10 04:21:06;;;;;;;19.20;9.17;;;;;;;9.69;68.72;102499.22;6121126;23;20607;-58
2021/10/10 04:23:32;;;;;;;19.80;8.73;;;;;;;10.05;68.17;102553.78;6121735;23;20165;-59
2021/10/10 04:25:58;;;;;;;18.67;8.50;;;;;;;10.10;69.03;102553.44;6121938;23;20174;-59
2021/10/10 04:28:24;;;;;;;18.80;9.07;;;;;;;10.10;68.03;102562.50;6121972;23;20157;-58
2021/10/10 04:30:50;;;;;;;17.53;9.03;;;;;;;9.82;67.42;102522.66;6123955;23;20684;-58
2021/10/10 04:33:15;;;;;;;19.20;9.20;;;;;;;10.02;67.22;102547.00;6123310;23;20175;-59
2021/10/10 04:35:41;;;;;;;16.73;8.47;;;;;;;10.16;67.48;102557.44;6123539;23;20152;-58
2021/10/10 04:38:06;;;;;;;18.23;9.07;;;;;;;10.05;67.71;102559.31;6123506;23;20156;-58
2021/10/10 04:40:32;;;;;;;20.47;8.93;;;;;;;9.67;67.60;102507.09;6123972;23;20157;-58
2021/10/10 04:42:57;;;;;;;20.17;9.07;;;;;;;10.08;68.03;102562.13;6123074;23;20165;-61
2021/10/10 04:45:23;;;;;;;21.07;9.40;;;;;;;10.06;67.40;102558.13;6123398;23;20228;-61
2021/10/10 04:47:48;;;;;;;21.23;8.97;;;;;;;9.98;67.84;102548.94;6122490;23;20613;-61
2021/10/10 04:50:14;;;;;;;21.97;8.87;;;;;;;10.11;67.55;102563.31;6123719;23;20163;-61
2021/10/10 04:52:39;;;;;;;15.33;8.87;;;;;;;10.14;67.59;102566.13;6123487;23;20153;-61
2021/10/10 04:55:05;;;;;;;18.33;9.53;;;;;;;9.57;68.68;102488.41;6122840;23;20157;-61
2021/10/10 04:57:31;;;;;;;20.17;8.80;;;;;;;9.86;68.85;102538.16;6123439;23;20184;-61
2021/10/10 04:59:56;;;;;;;17.67;8.97;;;;;;;9.74;68.66;102518.25;6121960;23;20619;-61
2021/10/10 05:02:23;;;;;;;19.70;9.13;;;;;;;10.09;68.63;102558.16;6124079;23;20187;-61
2021/10/10 05:04:50;;;;;;;16.73;8.70;;;;;;;10.08;68.46;102564.06;6122827;23;20237;-61
2021/10/10 05:07:17;;;;;;;16.07;8.70;;;;;;;10.09;68.05;102562.91;6123641;23;20221;-61
2021/10/10 05:09:42;;;;;;;18.97;8.97;;;;;;;10.06;67.96;102570.03;6123781;23;20385;-61
2021/10/10 05:12:08;;;;;;;15.80;9.10;;;;;;;10.21;68.71;102571.75;6123031;23;20208;-61
2021/10/10 05:14:34;;;;;;;20.67;8.70;;;;;;;10.12;68.14;102570.44;6121705;23;20217;-61
2021/10/10 05:16:59;;;;;;;17.77;8.80;;;;;;;10.06;68.63;102575.56;6121666;23;20189;-61
2021/10/10 05:19:26;;;;;;;17.43;9.03;;;;;;;10.09;67.77;102582.31;6124122;23;20236;-61
2021/10/10 05:21:51;;;;;;;18.87;8.97;;;;;;;9.87;68.17;102536.97;6121447;23;20191;-61
2021/10/10 05:24:17;;;;;;;18.47;8.73;;;;;;;9.96;68.07;102575.41;6123136;23;20639;-62
2021/10/10 05:26:43;;;;;;;16.77;9.20;;;;;;;10.05;69.07;102570.41;6123289;23;20216;-61
2021/10/10 05:29:09;;;;;;;17.73;9.23;;;;;;;9.78;68.86;102553.09;6122843;23;20177;-62
2021/10/10 05:31:34;;;;;;;20.97;9.97;;;;;;;10.00;68.56;102587.34;6123255;23;20143;-61
2021/10/10 05:34:00;;;;;;;16.77;8.73;;;;;;;10.08;68.68;102591.78;6123099;23;20152;-62
2021/10/10 05:36:27;;;;;;;17.43;8.73;;;;;;;10.16;69.65;102599.00;6122821;23;20191;-61
2021/10/10 05:38:53;;;;;;;14.47;8.30;;;;;;;9.81;68.73;102559.84;6123232;23;20178;-61
2021/10/10 05:41:18;;;;;;;16.83;8.60;;;;;;;9.62;68.16;102548.94;6122768;23;20488;-62
2021/10/10 05:43:44;;;;;;;18.27;8.27;;;;;;;9.80;67.80;102577.63;6123636;23;20160;-62
2021/10/10 05:46:10;;;;;;;15.07;8.10;;;;;;;9.96;68.74;102601.16;6122071;23;20230;-61
2021/10/10 05:48:35;;;;;;;15.20;8.30;;;;;;;10.06;67.90;102608.00;6123708;23;20157;-61
2021/10/10 05:51:01;;;;;;;20.70;8.83;;;;;;;10.16;68.27;102612.84;6122824;23;20622;-62
2021/10/10 05:53:26;;;;;;;25.30;9.63;;;;;;;10.16;67.95;102615.63;6123347;23;20158;-62
2021/10/10 05:55:58;;;;;;;14.80;8.33;;;;;;;9.82;67.78;102561.44;6122408;23;20186;-61
2021/10/10 05:58:26;;;;;;;17.53;8.47;;;;;;;10.12;67.77;102615.59;6121377;23;20152;-61
2021/10/10 06:00:52;;;;;;;19.10;8.90;;;;;;;10.09;67.70;102608.03;6120987;23;20484;-62
2021/10/10 06:03:17;;;;;;;23.33;9.43;;;;;;;10.09;67.83;102626.63;6123187;23;20185;-62
2021/10/10 06:05:43;;;;;;;17.30;8.63;;;;;;;9.91;67.04;102620.88;6122405;23;20151;-62
2021/10/10 06:08:08;;;;;;;23.17;8.73;;;;;;;9.91;67.69;102620.06;6122910;23;20478;-62
2021/10/10 06:10:36;;;;;;;21.47;8.67;;;;;;;10.03;67.74;102617.03;6123069;23;20155;-62
2021/10/10 06:13:01;;;;;;;19.90;8.97;;;;;;;9.88;68.16;102610.56;6122667;23;20678;-62
2021/10/10 06:15:27;;;;;;;19.00;8.70;;;;;;;9.87;69.15;102617.28;6122873;23;20151;-62
2021/10/10 06:17:53;;;;;;;19.20;8.30;;;;;;;9.89;68.98;102612.16;6125020;23;20193;-63
2021/10/10 06:20:18;;;;;;;16.50;7.83;;;;;;;9.80;69.00;102622.75;6125608;23;20159;-62
2021/10/10 06:22:44;;;;;;;17.50;8.60;;;;;;;9.85;69.61;102618.84;6123949;23;20152;-62
2021/10/10 06:25:09;;;;;;;19.80;8.50;;;;;;;9.46;69.80;102581.59;6123368;23;20157;-62
2021/10/10 06:27:35;;;;;;;21.27;9.07;;;;;;;9.70;70.29;102620.66;6124347;23;20294;-62
2021/10/10 06:30:00;;;;;;;21.60;8.37;;;;;;;9.49;69.94;102573.34;6124957;23;20505;-61
2021/10/10 06:32:26;;;;;;;16.77;8.10;;;;;;;9.73;70.51;102610.81;6121434;23;20155;-59
2021/10/10 06:34:51;;;;;;;20.60;8.70;;;;;;;9.77;70.36;102611.59;6122679;23;20236;-58
2021/10/10 06:37:17;;;;;;;24.23;8.33;;;;;;;9.22;70.20;102555.22;6121824;23;20624;-60
2021/10/10 06:39:42;;;;;;;15.57;7.63;;;;;;;9.74;70.42;102623.47;6123247;23;20222;-60
2021/10/10 06:42:08;;;;;;;19.10;8.07;;;;;;;9.90;70.20;102619.28;6122168;23;20173;-59
2021/10/10 06:44:34;;;;;;;20.67;8.27;;;;;;;9.95;70.11;102620.91;6122964;23;20600;-59
2021/10/10 06:47:00;;;;;;;17.17;7.43;;;;;;;9.45;69.40;102539.31;6121828;23;20175;-59
2021/10/10 06:49:25;;;;;;;22.07;7.30;;;;;;;9.88;69.19;102621.63;6122810;23;20150;-59
2021/10/10 06:51:51;;;;;;;16.97;7.83;;;;;;;9.91;70.12;102628.38;6120573;23;20174;-62
2021/10/10 06:54:17;;;;;;;20.10;7.30;;;;;;;9.70;69.74;102612.34;6122430;23;20188;-62
2021/10/10 06:56:42;;;;;;;24.13;8.97;;;;;;;9.78;69.52;102614.00;6121846;23;20501;-62
2021/10/10 06:59:09;;;;;;;21.30;7.77;;;;;;;9.81;69.46;102613.25;6122240;23;20592;-62
2021/10/10 07:01:34;;;;;;;21.00;7.23;;;;;;;9.34;69.47;102554.19;6121518;23;20155;-61
2021/10/10 07:04:00;;;;;;;15.33;7.00;;;;;;;9.04;69.23;102507.22;6122547;23;20151;-61
2021/10/10 07:06:25;;;;;;;18.43;7.93;;;;;;;9.33;69.20;102575.50;6122297;23;20527;-61
2021/10/10 07:08:52;;;;;;;19.60;7.83;;;;;;;9.60;69.68;102615.78;6122286;23;20184;-62
2021/10/10 07:11:18;;;;;;;19.00;7.93;;;;;;;9.58;70.04;102612.59;6122194;23;20244;-62
2021/10/10 07:13:44;;;;;;;27.13;8.30;;;;;;;9.48;70.29;102602.19;6122813;23;20157;-61
2021/10/10 07:16:09;;;;;;;22.60;8.40;;;;;;;9.58;70.60;102622.88;6121905;23;20681;-61
2021/10/10 07:26:21;;;;;;;19.97;8.40;;;;;;;9.56;70.86;102622.44;6118623;23;20189;-61
2021/10/10 07:28:46;;;;;;;22.10;8.77;;;;;;;9.54;71.12;102616.50;6118742;23;20163;-61
2021/10/10 07:31:12;;;;;;;17.83;8.70;;;;;;;9.46;71.39;102623.91;6118306;23;20432;-61
2021/10/10 07:33:40;;;;;;;18.53;8.17;;;;;;;9.24;72.26;102588.06;6118500;23;20189;-61
2021/10/10 07:36:06;;;;;;;21.77;8.53;;;;;;;9.42;72.57;102617.53;6119414;23;20480;-61
2021/10/10 07:38:32;;;;;;;20.37;8.93;;;;;;;9.17;72.80;102599.03;6119460;23;20156;-60
2021/10/10 07:41:02;;;;;;;19.90;9.27;;;;;;;9.18;73.58;102615.25;6119254;23;20168;-61
2021/10/10 07:43:28;;;;;;;20.90;8.77;;;;;;;9.06;73.83;102596.13;6117647;23;20169;-61
2021/10/10 07:45:54;;;;;;;25.63;9.30;;;;;;;8.86;74.33;102575.28;6120282;23;20224;-61
2021/10/10 07:48:19;;;;;;;15.63;9.77;;;;;;;8.90;74.98;102600.22;6120581;23;20241;-61
2021/10/10 07:50:46;;;;;;;22.10;9.30;;;;;;;9.02;75.35;102617.38;6121022;23;20152;-62
2021/10/10 07:53:13;;;;;;;22.10;9.77;;;;;;;9.22;74.86;102620.84;6120752;23;20161;-61
2021/10/10 07:55:39;;;;;;;23.40;9.90;;;;;;;9.31;74.86;102624.09;6120311;23;20152;-61
2021/10/10 07:58:04;;;;;;;22.80;10.07;;;;;;;8.95;75.20;102584.13;6120823;23;20215;-61
2021/10/10 08:00:30;;;;;;;24.73;9.63;;;;;;;9.09;75.37;102592.63;6120414;23;20177;-61
2021/10/10 08:02:58;;;;;;;19.23;10.03;;;;;;;9.14;75.42;102611.66;6120150;23;20476;-60
2021/10/10 08:05:26;;;;;;;20.90;10.03;;;;;;;9.29;75.47;102624.50;6121628;23;20166;-61
2021/10/10 08:07:53;;;;;;;20.40;9.77;;;;;;;9.13;75.54;102603.72;6123317;23;20253;-61
2021/10/10 08:10:19;;;;;;;19.13;9.93;;;;;;;9.46;75.25;102631.41;6122858;23;20565;-60
2021/10/10 08:12:45;;;;;;;19.57;9.80;;;;;;;9.33;75.08;102596.88;6122776;23;20499;-62
2021/10/10 08:15:11;;;;;;;19.13;9.07;;;;;;;9.55;74.81;102635.50;6115385;23;20182;-61
2021/10/10 08:17:38;;;;;;;17.13;9.13;;;;;;;9.39;75.21;102634.88;6121959;23;20152;-61
2021/10/10 08:20:08;;;;;;;20.13;9.47;;;;;;;9.37;75.13;102636.47;6122164;23;20164;-61
2021/10/10 08:22:36;;;;;;;18.37;9.37;;;;;;;9.34;74.91;102640.78;6122469;23;20157;-61
2021/10/10 08:25:07;;;;;;;20.77;8.90;;;;;;;9.59;75.16;102641.09;6121972;23;20181;-61
2021/10/10 08:27:34;;;;;;;20.23;9.93;;;;;;;9.41;74.48;102635.31;6122239;23;20188;-61
2021/10/10 08:29:59;;;;;;;20.63;9.37;;;;;;;9.30;74.46;102611.44;6122188;23;20200;-62
2021/10/10 08:32:25;;;;;;;18.53;9.63;;;;;;;9.70;74.14;102645.56;6122187;23;20199;-61
2021/10/10 08:34:50;;;;;;;17.63;8.43;;;;;;;9.76;74.08;102637.72;6121817;23;20546;-61
2021/10/10 08:37:16;;;;;;;16.80;8.90;;;;;;;9.87;74.00;102647.75;6121415;23;20582;-60
2021/10/10 08:39:41;;;;;;;17.17;8.33;;;;;;;9.74;73.77;102620.69;6123156;23;20216;-60
2021/10/10 08:42:10;;;;;;;24.57;9.10;;;;;;;9.82;73.53;102641.72;6121503;23;20160;-61
2021/10/10 08:44:40;;;;;;;20.50;9.73;;;;;;;9.56;74.48;102639.88;6121755;23;20616;-61
2021/10/10 08:47:13;;;;;;;22.70;9.70;;;;;;;9.49;74.92;102639.75;6121022;23;20726;-61
2021/10/10 08:49:39;;;;;;;16.73;9.30;;;;;;;9.18;74.01;102615.25;6122652;23;20141;-61
2021/10/10 08:52:05;;;;;;;19.90;9.93;;;;;;;9.16;74.55;102631.44;6121323;23;20242;-61
2021/10/10 08:54:30;;;;;;;23.30;10.00;;;;;;;8.66;75.09;102570.28;6122345;23;20208;-61
2021/10/10 08:56:57;;;;;;;25.87;9.87;;;;;;;8.94;74.75;102620.44;6121886;23;20157;-61
2021/10/10 08:59:24;;;;;;;17.60;9.70;;;;;;;8.95;75.84;102639.44;6122316;23;20640;-61
2021/10/10 09:01:53;;;;;;;19.60;9.97;;;;;;;9.02;75.87;102622.91;6121654;23;20164;-61
2021/10/10 09:04:19;;;;;;;21.97;10.37;;;;;;;9.09;75.47;102625.81;6122096;23;20600;-60
2021/10/10 09:06:44;;;;;;;20.47;10.37;;;;;;;9.06;74.85;102629.31;6122081;23;20238;-60
2021/10/10 09:09:30;;;;;;;22.13;9.93;;;;;;;9.10;74.88;102627.41;6122165;23;20610;-61
2021/10/10 09:12:10;;;;;;;14.30;9.33;;;;;;;9.13;75.60;102623.88;6121882;23;20240;-61
2021/10/10 09:14:48;;;;;;;17.20;10.30;;;;;;;9.27;74.51;102618.53;6122236;23;20139;-61
2021/10/10 09:17:24;;;;;;;17.90;8.70;;;;;;;9.37;74.47;102617.09;6121372;23;20170;-61
2021/10/10 09:19:58;;;;;;;21.03;9.50;;;;;;;9.32;74.34;102611.88;6121713;23;20138;-61
2021/10/10 09:22:26;;;;;;;20.57;9.07;;;;;;;9.30;73.60;102619.75;6121245;23;20150;-61
2021/10/10 09:24:54;;;;;;;21.43;9.20;;;;;;;9.39;74.39;102617.50;6121719;23;20199;-60
2021/10/10 09:27:26;;;;;;;27.53;10.20;;;;;;;9.48;74.22;102629.09;6118393;23;20731;-61
2021/10/10 09:29:53;;;;;;;18.63;9.63;;;;;;;9.50;73.05;102623.97;6121684;23;20600;-60
2021/10/10 09:32:21;;;;;;;18.87;10.60;;;;;;;9.52;72.41;102621.59;6120752;23;20143;-62
2021/10/10 09:34:49;;;;;;;18.77;10.03;;;;;;;9.55;72.85;102621.66;6119596;23;20163;-61
2021/10/10 09:37:26;;;;;;;15.57;10.30;;;;;;;9.73;72.57;102624.66;6121020;23;20536;-60
2021/10/10 09:40:02;;;;;;;18.53;10.60;;;;;;;9.77;72.48;102629.03;6120952;23;20206;-60
2021/10/10 09:42:38;;;;;;;20.60;10.43;;;;;;;9.90;72.27;102635.09;6119540;23;20167;-60
2021/10/10 09:45:28;;;;;;;19.67;10.93;;;;;;;9.99;71.95;102630.06;6121618;23;20168;-60
2021/10/10 09:47:59;;;;;;;18.07;9.93;;;;;;;9.90;71.36;102638.66;6121707;23;20189;-60
2021/10/10 09:50:28;;;;;;;22.73;9.73;;;;;;;9.97;70.28;102627.69;6121571;23;20142;-59
2021/10/10 09:53:07;;;;;;;24.70;9.90;;;;;;;10.13;69.30;102633.00;6120446;23;20444;-60
2021/10/10 09:55:36;;;;;;;18.87;9.13;;;;;;;10.16;68.46;102630.28;6119857;23;20592;-61
2021/10/10 09:58:02;;;;;;;19.00;9.60;;;;;;;9.81;68.42;102580.03;6121030;23;20153;-60
2021/10/10 10:00:29;;;;;;;18.07;9.20;;;;;;;10.23;68.79;102624.78;6121874;23;20576;-61
2021/10/10 10:03:12;;;;;;;20.63;9.77;;;;;;;10.28;67.20;102632.75;6119024;23;20167;-60
2021/10/10 10:05:38;;;;;;;24.40;9.50;;;;;;;10.33;66.80;102634.38;6121561;23;20656;-61
2021/10/10 10:08:05;;;;;;;22.63;9.50;;;;;;;10.24;66.56;102584.81;6120009;23;20194;-62
2021/10/10 10:10:33;;;;;;;20.43;9.20;;;;;;;10.57;66.22;102623.50;6121995;23;20498;-60
2021/10/10 10:13:00;;;;;;;22.13;9.07;;;;;;;10.57;65.35;102622.69;6120758;23;20214;-60
2021/10/10 10:15:31;;;;;;;18.93;9.77;;;;;;;10.53;65.77;102594.16;6116808;23;20663;-60
2021/10/10 10:17:57;;;;;;;19.30;9.63;;;;;;;10.70;65.69;102616.47;6120364;23;20156;-60
2021/10/10 10:20:25;;;;;;;17.90;9.80;;;;;;;10.77;66.12;102612.94;6120722;23;20157;-60
2021/10/10 10:22:54;;;;;;;18.27;9.93;;;;;;;10.49;65.23;102557.28;6119566;23;20524;-60
2021/10/10 10:25:25;;;;;;;20.13;9.67;;;;;;;10.89;64.50;102607.88;6119918;23;20516;-60
2021/10/10 10:27:52;;;;;;;19.47;9.17;;;;;;;11.02;64.85;102589.72;6121280;23;20411;-61
2021/10/10 10:30:19;;;;;;;17.90;9.63;;;;;;;11.21;65.64;102597.75;6121594;23;20256;-60
2021/10/10 10:32:46;;;;;;;21.83;9.27;;;;;;;11.29;64.41;102599.38;6120507;23;20212;-60
2021/10/10 10:35:14;;;;;;;18.57;8.90;;;;;;;11.30;64.37;102595.41;6120187;23;20505;-60
2021/10/10 10:37:42;;;;;;;20.97;9.57;;;;;;;11.48;64.89;102599.06;6116536;23;20560;-61
2021/10/10 10:40:14;;;;;;;17.57;9.30;;;;;;;11.54;64.69;102599.47;6120839;23;20192;-60
2021/10/10 10:42:41;;;;;;;18.50;9.80;;;;;;;11.59;63.86;102593.56;6120281;23;20521;-60
2021/10/10 10:45:27;;;;;;;24.67;9.57;;;;;;;11.63;63.29;102581.28;6117560;23;20241;-61
2021/10/10 10:47:55;;;;;;;21.40;9.80;;;;;;;11.59;63.62;102572.13;6121403;23;20179;-60
2021/10/10 10:50:42;;;;;;;21.73;9.83;;;;;;;11.81;62.84;102559.91;6115063;23;20155;-61
2021/10/10 10:53:19;;;;;;;20.57;9.50;;;;;;;12.24;62.73;102583.00;6114935;23;20142;-61
2021/10/10 10:55:53;;;;;;;22.53;9.87;;;;;;;12.35;61.68;102578.22;6116427;23;20165;-60
2021/10/10 10:58:18;;;;;;;19.30;10.03;;;;;;;12.22;61.15;102566.69;6114579;23;20156;-60
2021/10/10 11:00:49;;;;;;;24.40;9.93;;;;;;;11.85;60.63;102504.34;6118966;23;20154;-58
2021/10/10 11:03:24;;;;;;;18.57;9.90;;;;;;;12.16;59.70;102578.59;6117960;23;20567;-61
2021/10/10 11:05:57;;;;;;;21.57;10.20;;;;;;;12.28;60.06;102562.31;6115927;23;20150;-61
2021/10/10 11:08:23;;;;;;;20.63;10.33;;;;;;;12.43;61.54;102565.88;6119640;23;20158;-61
2021/10/10 11:11:00;;;;;;;18.57;10.13;;;;;;;12.48;61.64;102565.47;6118316;23;20159;-62
2021/10/10 11:13:28;;;;;;;20.10;10.50;;;;;;;12.52;60.51;102564.31;6115130;23;20161;-59
2021/10/10 11:16:14;;;;;;;19.33;10.77;;;;;;;12.56;61.11;102559.50;6110622;23;20154;-59
2021/10/10 11:18:47;;;;;;;23.97;10.43;;;;;;;12.61;60.89;102558.34;6112256;23;20498;-61
2021/10/10 11:21:16;;;;;;;19.37;10.73;;;;;;;12.66;61.11;102553.13;6113690;23;20245;-61
2021/10/10 11:23:43;;;;;;;16.07;10.70;;;;;;;12.69;60.00;102538.44;6113474;23;20175;-62
2021/10/10 11:26:12;;;;;;;25.13;10.83;;;;;;;12.60;60.63;102537.28;6112367;23;20189;-61